Time;durP1;ratioP1;P1;durP2;ratioP2;P2;SDS_P1;SDS_P2;PMS_P1;PMS_P2;Temp;Humidity;BMP_temperature;BMP_pressure;BME280_temperature;BME280_humidity;BME280_pressure;Samples;Min_cycle;Max_cycle;Signal;HPM_P1;HPM_P2
2023/02/27 00:02:00;;;;;;;;;;;4.70;99.90;;;;;;4998397;28;20295;-66
2023/02/27 00:04:25;;;;;;;;;;;4.70;99.90;;;;;;4996593;28;20323;-65
2023/02/27 00:06:51;;;;;;;;;;;4.70;99.90;;;;;;5005337;28;19932;-68
2023/02/27 00:09:17;;;;;;;;;;;4.70;99.90;;;;;;5007574;28;19947;-63
2023/02/27 00:11:42;;;;;;;;;;;4.70;99.90;;;;;;5014690;28;20336;-65
2023/02/27 00:14:08;;;;;;;;;;;4.70;99.90;;;;;;5016213;28;19909;-64
2023/02/27 00:16:34;;;;;;;;;;;4.60;99.90;;;;;;5030922;28;20390;-68
2023/02/27 00:19:03;;;;;;;;;;;4.60;99.90;;;;;;5010855;28;20346;-66
2023/02/27 00:21:30;;;;;;;;;;;4.60;99.90;;;;;;5015656;28;19964;-63
2023/02/27 00:23:55;;;;;;;;;;;4.60;99.90;;;;;;5016668;28;19910;-66
2023/02/27 00:26:21;;;;;;;;;;;4.60;99.90;;;;;;5015372;28;19920;-62
2023/02/27 00:28:47;;;;;;;;;;;4.60;99.90;;;;;;5016146;28;19984;-63
2023/02/27 00:31:13;;;;;;;;;;;4.60;99.90;;;;;;5015851;28;19949;-65
2023/02/27 00:33:38;;;;;;;;;;;4.50;99.90;;;;;;5016516;28;19941;-66
2023/02/27 00:36:04;;;;;;;;;;;4.50;99.90;;;;;;5014825;28;19910;-64
2023/02/27 00:38:30;;;;;;;;;;;4.40;99.90;;;;;;5000514;28;19983;-71
2023/02/27 00:40:56;;;;;;;;;;;4.40;99.90;;;;;;5011407;28;19976;-67
2023/02/27 00:43:22;;;;;;;;;;;4.30;99.90;;;;;;4998879;28;19953;-64
2023/02/27 00:45:47;;;;;;;;;;;4.30;99.90;;;;;;4993957;28;19956;-65
2023/02/27 00:48:14;;;;;;;;;;;4.30;99.90;;;;;;4995539;28;19921;-67
2023/02/27 00:50:40;;;;;;;;;;;4.30;99.90;;;;;;4997073;28;19918;-64
2023/02/27 00:53:05;;;;;;;;;;;4.30;99.90;;;;;;4994927;28;20411;-73
2023/02/27 00:55:31;;;;;;;;;;;4.30;99.90;;;;;;4999455;28;19956;-64
2023/02/27 00:57:57;;;;;;;;;;;4.30;99.90;;;;;;4995303;28;19914;-65
2023/02/27 01:00:23;;;;;;;;;;;4.30;99.90;;;;;;4995834;28;20367;-64
2023/02/27 01:02:48;;;;;;;;;;;4.20;99.90;;;;;;4996131;28;19914;-66
2023/02/27 01:05:14;;;;;;;;;;;4.20;99.90;;;;;;4996010;28;20348;-73
2023/02/27 01:07:40;;;;;;;;;;;4.30;99.90;;;;;;4999350;28;20395;-70
2023/02/27 01:10:07;;;;;;;;;;;4.30;99.90;;;;;;4997229;28;19914;-64
2023/02/27 01:12:32;;;;;;;;;;;4.30;99.90;;;;;;5002626;28;19922;-64
2023/02/27 01:14:58;;;;;;;;;;;4.20;99.90;;;;;;4993333;28;20107;-62
2023/02/27 01:17:24;;;;;;;;;;;4.20;99.90;;;;;;4993458;28;19989;-72
2023/02/27 01:19:49;;;;;;;;;;;4.20;99.90;;;;;;4997421;28;19928;-67
2023/02/27 01:22:15;;;;;;;;;;;4.20;99.90;;;;;;5001840;28;19918;-69
2023/02/27 01:24:43;;;;;;;;;;;4.20;99.90;;;;;;4994857;28;19953;-70
2023/02/27 01:27:09;;;;;;;;;;;4.10;99.90;;;;;;5000074;28;19975;-63
2023/02/27 01:29:34;;;;;;;;;;;4.20;99.90;;;;;;4995326;28;20330;-65
2023/02/27 01:32:00;;;;;;;;;;;4.20;99.90;;;;;;4996182;28;20376;-63
2023/02/27 01:34:26;;;;;;;;;;;4.10;99.90;;;;;;4995811;28;20403;-67
2023/02/27 01:36:52;;;;;;;;;;;4.20;99.90;;;;;;4994624;28;19918;-66
2023/02/27 01:39:17;;;;;;;;;;;4.20;99.90;;;;;;4994125;28;19926;-66
2023/02/27 01:41:43;;;;;;;;;;;4.20;99.90;;;;;;4994542;28;19947;-61
2023/02/27 01:44:10;;;;;;;;;;;4.20;99.90;;;;;;5000279;28;19913;-64
2023/02/27 01:46:36;;;;;;;;;;;4.20;99.90;;;;;;5013906;28;19910;-66
2023/02/27 01:49:22;;;;;;;;;;;4.20;99.90;;;;;;5015138;28;20386;-69
2023/02/27 01:51:53;;;;;;;;;;;4.20;99.90;;;;;;4997570;28;19920;-69
2023/02/27 01:54:21;;;;;;;;;;;4.30;99.90;;;;;;5017571;28;19964;-69
2023/02/27 01:56:47;;;;;;;;;;;4.40;99.90;;;;;;4997130;28;19928;-68
2023/02/27 01:59:13;;;;;;;;;;;4.40;99.90;;;;;;4993260;28;19933;-71
2023/02/27 02:01:39;;;;;;;;;;;4.40;99.90;;;;;;4995033;28;19914;-66
2023/02/27 02:04:16;;;;;;;;;;;4.30;99.90;;;;;;4993399;28;19914;-64
2023/02/27 02:06:44;;;;;;;;;;;4.30;99.90;;;;;;4994900;28;19960;-70
2023/02/27 02:09:10;;;;;;;;;;;4.30;99.90;;;;;;4993159;28;19914;-65
2023/02/27 02:11:36;;;;;;;;;;;4.30;99.90;;;;;;5010426;28;20385;-67
2023/02/27 02:14:02;;;;;;;;;;;4.30;99.90;;;;;;5012486;28;19909;-67
2023/02/27 02:16:27;;;;;;;;;;;4.30;99.90;;;;;;5013460;28;19914;-70
2023/02/27 02:18:56;;;;;;;;;;;4.40;99.90;;;;;;5011283;28;19910;-66
2023/02/27 02:21:36;;;;;;;;;;;4.30;99.90;;;;;;5014066;28;20276;-62
2023/02/27 02:24:43;;;;;;;;;;;4.40;99.90;;;;;;5013638;28;19910;-62
2023/02/27 02:27:17;;;;;;;;;;;4.30;99.90;;;;;;4933503;29;20203;-62
2023/02/27 02:30:01;;;;;;;;;;;4.30;99.90;;;;;;4933774;29;20457;-68
2023/02/27 02:32:50;;;;;;;;;;;4.30;99.90;;;;;;4986623;28;19910;-67
2023/02/27 02:35:21;;;;;;;;;;;4.40;99.90;;;;;;4996466;28;19960;-73
2023/02/27 02:37:47;;;;;;;;;;;4.40;99.90;;;;;;5007812;28;19910;-64
2023/02/27 02:40:26;;;;;;;;;;;4.40;99.90;;;;;;5009625;28;19932;-70
2023/02/27 02:42:59;;;;;;;;;;;4.40;99.90;;;;;;4994190;28;19913;-66
2023/02/27 02:45:40;;;;;;;;;;;4.30;99.90;;;;;;4994810;28;20438;-70
2023/02/27 02:48:21;;;;;;;;;;;4.30;99.90;;;;;;4995369;28;19946;-68
2023/02/27 02:51:00;;;;;;;;;;;4.30;99.90;;;;;;4994252;28;19983;-65
2023/02/27 02:53:35;;;;;;;;;;;4.30;99.90;;;;;;4998782;28;22214;-67
2023/02/27 02:56:05;;;;;;;;;;;4.40;99.90;;;;;;5000331;28;19921;-64
2023/02/27 02:58:30;;;;;;;;;;;4.30;99.90;;;;;;4995351;28;19929;-64
2023/02/27 03:01:04;;;;;;;;;;;4.20;99.90;;;;;;4993669;28;19918;-68
2023/02/27 03:03:33;;;;;;;;;;;4.30;99.90;;;;;;4994292;28;20321;-63
2023/02/27 03:06:07;;;;;;;;;;;4.20;99.90;;;;;;4995693;28;20545;-70
2023/02/27 03:08:36;;;;;;;;;;;4.20;99.90;;;;;;5009865;28;19914;-66
2023/02/27 03:11:03;;;;;;;;;;;4.20;99.90;;;;;;4995789;28;20402;-59
2023/02/27 03:13:28;;;;;;;;;;;4.20;99.90;;;;;;4994887;28;19913;-67
2023/02/27 03:15:57;;;;;;;;;;;4.20;99.90;;;;;;4991547;28;19956;-69
2023/02/27 03:18:25;;;;;;;;;;;4.10;99.90;;;;;;5000589;28;19913;-69
2023/02/27 03:20:54;;;;;;;;;;;4.20;99.90;;;;;;5006245;28;20098;-69
2023/02/27 03:23:24;;;;;;;;;;;4.10;99.90;;;;;;4993487;28;20024;-72
2023/02/27 03:25:50;;;;;;;;;;;4.10;99.90;;;;;;5000908;28;19918;-64
2023/02/27 03:28:22;;;;;;;;;;;4.10;99.90;;;;;;5000460;28;19968;-66
2023/02/27 03:30:50;;;;;;;;;;;4.10;99.90;;;;;;4994528;28;19933;-68
2023/02/27 03:33:24;;;;;;;;;;;4.00;99.90;;;;;;4994678;28;19969;-72
2023/02/27 03:35:56;;;;;;;;;;;4.00;99.90;;;;;;4991458;28;19957;-67
2023/02/27 03:38:30;;;;;;;;;;;4.00;99.90;;;;;;4993019;28;19964;-65
2023/02/27 03:41:03;;;;;;;;;;;4.00;99.90;;;;;;4995071;28;19917;-66
2023/02/27 03:43:37;;;;;;;;;;;4.00;99.90;;;;;;4994742;28;21388;-63
2023/02/27 03:46:12;;;;;;;;;;;4.00;99.90;;;;;;4994587;28;19929;-65
2023/02/27 03:48:43;;;;;;;;;;;4.10;99.90;;;;;;4992005;28;19924;-68
2023/02/27 03:51:12;;;;;;;;;;;4.00;99.90;;;;;;4997238;28;19921;-64
2023/02/27 03:53:49;;;;;;;;;;;4.10;99.90;;;;;;4994114;28;19920;-70
2023/02/27 03:56:17;;;;;;;;;;;4.10;99.90;;;;;;4997171;28;19918;-63
2023/02/27 03:58:45;;;;;;;;;;;4.00;99.90;;;;;;4993072;28;19924;-71
2023/02/27 04:01:11;;;;;;;;;;;4.00;99.90;;;;;;4999049;28;19925;-69
2023/02/27 04:03:40;;;;;;;;;;;4.00;99.90;;;;;;4995920;28;19920;-70
2023/02/27 04:07:21;;;;;;;;;;;4.00;99.90;;;;;;4996849;28;19953;-65
2023/02/27 04:08:59;;;;;;;;;;;4.10;99.90;;;;;;4998821;28;19975;-62
2023/02/27 04:11:40;;;;;;;;;;;4.10;99.90;;;;;;5012522;28;19924;-67
2023/02/27 04:14:05;;;;;;;;;;;4.10;99.90;;;;;;5010985;28;19976;-63
2023/02/27 04:16:34;;;;;;;;;;;4.10;99.90;;;;;;5010939;28;20410;-67
2023/02/27 04:19:00;;;;;;;;;;;4.10;99.90;;;;;;5012924;28;19921;-63
2023/02/27 04:21:44;;;;;;;;;;;4.10;99.90;;;;;;5012939;28;20283;-66
2023/02/27 04:24:22;;;;;;;;;;;4.10;99.90;;;;;;5012325;28;19920;-70
2023/02/27 04:26:50;;;;;;;;;;;4.00;99.90;;;;;;5012413;28;19910;-65
2023/02/27 04:29:17;;;;;;;;;;;4.00;99.90;;;;;;5011460;28;19913;-62
2023/02/27 04:31:58;;;;;;;;;;;4.10;99.90;;;;;;5011638;28;20243;-68
2023/02/27 04:34:35;;;;;;;;;;;4.10;99.90;;;;;;5011322;28;19910;-67
2023/02/27 04:37:05;;;;;;;;;;;4.10;99.90;;;;;;5012047;28;19933;-66
2023/02/27 04:39:37;;;;;;;;;;;4.20;99.90;;;;;;5004969;28;19929;-65
2023/02/27 04:42:05;;;;;;;;;;;4.20;99.90;;;;;;5001532;28;20003;-65
2023/02/27 04:44:33;;;;;;;;;;;4.20;99.90;;;;;;5008327;28;19936;-66
2023/02/27 04:47:00;;;;;;;;;;;4.10;99.90;;;;;;4995621;28;19913;-64
2023/02/27 04:49:32;;;;;;;;;;;4.10;99.90;;;;;;4996467;28;20017;-65
2023/02/27 04:52:01;;;;;;;;;;;4.10;99.90;;;;;;5009911;28;19963;-66
2023/02/27 04:54:30;;;;;;;;;;;4.20;99.90;;;;;;5015462;28;19983;-68
2023/02/27 04:56:58;;;;;;;;;;;4.20;99.90;;;;;;5014482;28;20020;-67
2023/02/27 04:59:29;;;;;;;;;;;4.20;99.90;;;;;;5010220;28;19960;-67
2023/02/27 05:02:03;;;;;;;;;;;4.30;99.90;;;;;;5014197;28;19913;-67
2023/02/27 05:04:31;;;;;;;;;;;4.20;99.90;;;;;;5005405;28;19936;-67
2023/02/27 05:06:59;;;;;;;;;;;4.20;99.90;;;;;;5010451;28;19920;-67
2023/02/27 05:09:30;;;;;;;;;;;4.20;99.90;;;;;;5014998;28;20319;-67
2023/02/27 05:11:59;;;;;;;;;;;4.20;99.90;;;;;;5016136;28;20413;-66
2023/02/27 05:14:31;;;;;;;;;;;4.20;99.90;;;;;;5011512;28;19913;-67
2023/02/27 05:17:03;;;;;;;;;;;4.10;99.90;;;;;;5007288;28;19975;-66
2023/02/27 05:19:29;;;;;;;;;;;4.20;99.90;;;;;;5011449;28;19925;-67
2023/02/27 05:22:01;;;;;;;;;;;4.10;99.90;;;;;;5013332;28;19922;-68
2023/02/27 05:24:42;;;;;;;;;;;4.10;99.90;;;;;;5010495;28;19994;-67
2023/02/27 05:27:15;;;;;;;;;;;4.10;99.90;;;;;;5012452;28;19924;-66
2023/02/27 05:29:41;;;;;;;;;;;4.20;99.90;;;;;;4998026;28;20330;-67
2023/02/27 05:32:25;;;;;;;;;;;4.10;99.90;;;;;;5009197;28;19922;-67
2023/02/27 05:34:51;;;;;;;;;;;4.10;99.90;;;;;;5007046;28;19925;-67
2023/02/27 05:37:36;;;;;;;;;;;4.10;99.90;;;;;;5013938;28;20346;-67
2023/02/27 05:40:07;;;;;;;;;;;4.10;99.90;;;;;;5009749;28;19952;-66
2023/02/27 05:42:35;;;;;;;;;;;4.10;99.90;;;;;;5008400;28;19956;-67
2023/02/27 05:45:13;;;;;;;;;;;4.10;99.90;;;;;;5014238;28;19999;-67
2023/02/27 05:47:42;;;;;;;;;;;4.10;99.90;;;;;;5009514;28;19921;-67
2023/02/27 05:50:12;;;;;;;;;;;4.10;99.90;;;;;;5008781;28;19983;-66
2023/02/27 05:52:39;;;;;;;;;;;4.10;99.90;;;;;;5001970;28;19921;-66
2023/02/27 05:55:05;;;;;;;;;;;4.10;99.90;;;;;;5014812;28;20032;-66
2023/02/27 05:57:49;;;;;;;;;;;4.10;99.90;;;;;;5007749;28;20343;-69
2023/02/27 06:00:19;;;;;;;;;;;4.10;99.90;;;;;;5009820;28;19917;-67
2023/02/27 06:02:45;;;;;;;;;;;4.10;99.90;;;;;;5012304;28;19920;-70
2023/02/27 06:05:12;;;;;;;;;;;4.10;99.90;;;;;;5008376;28;20012;-66
2023/02/27 06:07:38;;;;;;;;;;;4.10;99.90;;;;;;5009368;28;19937;-66
2023/02/27 06:10:04;;;;;;;;;;;4.10;99.90;;;;;;5009487;28;20113;-67
2023/02/27 06:12:30;;;;;;;;;;;4.10;99.90;;;;;;5014143;28;20411;-66
2023/02/27 06:14:55;;;;;;;;;;;4.10;99.90;;;;;;5014259;28;19955;-68
2023/02/27 06:17:21;;;;;;;;;;;4.10;99.90;;;;;;5013054;28;19909;-69
2023/02/27 06:19:47;;;;;;;;;;;4.20;99.90;;;;;;5014371;28;19920;-67
2023/02/27 06:22:13;;;;;;;;;;;4.20;99.90;;;;;;4997925;28;19968;-67
2023/02/27 06:24:38;;;;;;;;;;;4.20;99.90;;;;;;4996078;28;20395;-67
2023/02/27 06:27:04;;;;;;;;;;;4.20;99.90;;;;;;4993737;28;19918;-66
2023/02/27 06:29:30;;;;;;;;;;;4.20;99.90;;;;;;5014828;28;20024;-67
2023/02/27 06:31:55;;;;;;;;;;;4.20;99.90;;;;;;4995266;28;19929;-70
2023/02/27 06:34:21;;;;;;;;;;;4.30;99.90;;;;;;4998602;28;19963;-63
2023/02/27 06:36:47;;;;;;;;;;;4.30;99.90;;;;;;4996631;28;19969;-66
2023/02/27 06:39:13;;;;;;;;;;;4.30;99.90;;;;;;4996037;28;20426;-68
2023/02/27 06:41:39;;;;;;;;;;;4.30;99.90;;;;;;4998396;28;19921;-72
2023/02/27 06:44:04;;;;;;;;;;;4.30;99.90;;;;;;4994108;28;19917;-72
2023/02/27 06:46:30;;;;;;;;;;;4.40;99.90;;;;;;4995128;28;21780;-64
2023/02/27 06:48:56;;;;;;;;;;;4.40;99.90;;;;;;4994683;28;20048;-62
2023/02/27 06:51:21;;;;;;;;;;;4.50;99.90;;;;;;4996935;28;20279;-66
2023/02/27 06:53:47;;;;;;;;;;;4.40;99.90;;;;;;4994493;28;19987;-70
2023/02/27 06:56:12;;;;;;;;;;;4.40;99.90;;;;;;4997211;28;19913;-66
2023/02/27 06:58:38;;;;;;;;;;;4.50;99.90;;;;;;4995611;28;19923;-73
2023/02/27 07:01:04;;;;;;;;;;;4.50;99.90;;;;;;4994472;28;19921;-62
2023/02/27 07:03:29;;;;;;;;;;;4.50;99.90;;;;;;4994810;28;19952;-67
2023/02/27 07:05:56;;;;;;;;;;;4.50;99.90;;;;;;4992892;28;19914;-70
2023/02/27 07:08:24;;;;;;;;;;;4.50;99.90;;;;;;4996038;28;20007;-71
2023/02/27 07:10:50;;;;;;;;;;;4.60;99.90;;;;;;4994376;28;19924;-69
2023/02/27 07:13:16;;;;;;;;;;;4.60;99.90;;;;;;4999316;28;20345;-70
2023/02/27 07:15:43;;;;;;;;;;;4.50;99.90;;;;;;4994149;28;19968;-71
2023/02/27 07:18:09;;;;;;;;;;;4.50;99.90;;;;;;4993675;28;19918;-71
2023/02/27 07:20:35;;;;;;;;;;;4.70;99.90;;;;;;5001041;28;19924;-67
2023/02/27 07:23:00;;;;;;;;;;;4.60;99.90;;;;;;4993817;28;20324;-73
2023/02/27 07:25:26;;;;;;;;;;;4.60;99.90;;;;;;4999017;28;20401;-71
2023/02/27 07:27:52;;;;;;;;;;;4.70;99.90;;;;;;4995793;28;19917;-70
2023/02/27 07:30:18;;;;;;;;;;;4.70;99.90;;;;;;4996970;28;19925;-68
2023/02/27 07:32:44;;;;;;;;;;;4.70;99.90;;;;;;4993167;28;19914;-66
2023/02/27 07:35:10;;;;;;;;;;;4.80;99.90;;;;;;4996461;28;20142;-63
2023/02/27 07:37:36;;;;;;;;;;;4.80;99.90;;;;;;4998823;28;19913;-71
2023/02/27 07:40:02;;;;;;;;;;;4.80;99.90;;;;;;4993562;28;19924;-68
2023/02/27 07:42:28;;;;;;;;;;;4.80;99.90;;;;;;4992544;28;19922;-64
2023/02/27 07:44:54;;;;;;;;;;;4.70;99.90;;;;;;4993223;28;19914;-62
2023/02/27 07:47:19;;;;;;;;;;;4.70;99.90;;;;;;4996940;28;19925;-68
2023/02/27 07:49:45;;;;;;;;;;;4.80;99.90;;;;;;4995768;28;19914;-68
2023/02/27 07:52:11;;;;;;;;;;;4.90;99.90;;;;;;4993104;28;20463;-69
2023/02/27 07:54:37;;;;;;;;;;;4.90;99.90;;;;;;4995330;28;20323;-67
2023/02/27 07:57:03;;;;;;;;;;;4.90;99.90;;;;;;5002275;28;20003;-65
2023/02/27 07:59:29;;;;;;;;;;;5.00;99.90;;;;;;4993320;28;20024;-67
2023/02/27 08:01:54;;;;;;;;;;;5.00;99.90;;;;;;4995969;28;20021;-67
2023/02/27 08:04:20;;;;;;;;;;;5.10;99.90;;;;;;5001191;28;20287;-69
2023/02/27 08:06:46;;;;;;;;;;;5.10;99.90;;;;;;4993532;28;19913;-65
2023/02/27 08:09:12;;;;;;;;;;;5.20;99.90;;;;;;5005723;28;20047;-67
2023/02/27 08:11:37;;;;;;;;;;;5.20;99.90;;;;;;5012633;28;19914;-69
2023/02/27 08:14:03;;;;;;;;;;;5.20;99.90;;;;;;5013017;28;19968;-67
2023/02/27 08:16:29;;;;;;;;;;;5.30;99.90;;;;;;5009387;28;19910;-66
2023/02/27 08:18:55;;;;;;;;;;;5.30;99.90;;;;;;5012163;28;19928;-64
2023/02/27 08:21:21;;;;;;;;;;;5.40;99.90;;;;;;5012335;28;19932;-69
2023/02/27 08:23:46;;;;;;;;;;;5.50;99.90;;;;;;5014349;28;19917;-66
2023/02/27 08:26:12;;;;;;;;;;;5.50;99.90;;;;;;5014840;28;20336;-67
2023/02/27 08:28:38;;;;;;;;;;;5.50;99.90;;;;;;5016116;28;20311;-68
2023/02/27 08:31:04;;;;;;;;;;;5.60;99.90;;;;;;5016389;28;20379;-65
2023/02/27 08:33:30;;;;;;;;;;;5.40;99.90;;;;;;5014571;28;20527;-68
2023/02/27 08:35:55;;;;;;;;;;;5.40;99.90;;;;;;5021180;28;19913;-68
2023/02/27 08:38:21;;;;;;;;;;;5.40;99.90;;;;;;5016468;28;19909;-64
2023/02/27 08:40:49;;;;;;;;;;;5.50;99.90;;;;;;5019080;28;19961;-66
2023/02/27 08:43:14;;;;;;;;;;;5.50;99.90;;;;;;5015931;28;19945;-68
2023/02/27 08:45:40;;;;;;;;;;;5.40;99.90;;;;;;5015618;28;19913;-64
2023/02/27 08:48:06;;;;;;;;;;;5.50;99.90;;;;;;5018758;28;19913;-65
2023/02/27 08:50:31;;;;;;;;;;;5.50;99.90;;;;;;5016025;28;19910;-63
2023/02/27 08:52:57;;;;;;;;;;;5.50;99.90;;;;;;5015882;28;19921;-68
2023/02/27 08:55:23;;;;;;;;;;;5.50;99.90;;;;;;5020147;28;20485;-69
2023/02/27 08:57:48;;;;;;;;;;;5.40;99.90;;;;;;5014000;28;19977;-64
2023/02/27 09:00:14;;;;;;;;;;;5.40;99.90;;;;;;5015067;28;19917;-64
2023/02/27 09:02:40;;;;;;;;;;;5.40;99.90;;;;;;5010112;28;20527;-63
2023/02/27 09:05:06;;;;;;;;;;;5.30;99.90;;;;;;5007190;28;19959;-66
2023/02/27 09:07:33;;;;;;;;;;;5.30;99.90;;;;;;4997000;28;19976;-69
2023/02/27 09:09:59;;;;;;;;;;;5.30;99.90;;;;;;5013235;28;19940;-65
2023/02/27 09:12:25;;;;;;;;;;;5.30;99.90;;;;;;5013206;28;20040;-65
2023/02/27 09:14:50;;;;;;;;;;;5.30;99.90;;;;;;5000325;28;20019;-67
2023/02/27 09:17:16;;;;;;;;;;;5.40;99.90;;;;;;4999130;28;19913;-68
2023/02/27 09:19:42;;;;;;;;;;;5.40;99.90;;;;;;5000525;28;19918;-69
2023/02/27 09:22:07;;;;;;;;;;;5.40;99.90;;;;;;5000311;28;19924;-71
2023/02/27 09:24:33;;;;;;;;;;;5.40;99.90;;;;;;5015029;28;20325;-67
2023/02/27 09:26:59;;;;;;;;;;;5.30;99.90;;;;;;5007369;28;19925;-67
2023/02/27 09:29:26;;;;;;;;;;;5.40;99.90;;;;;;5002283;28;19922;-69
2023/02/27 09:31:52;;;;;;;;;;;5.40;99.90;;;;;;5003068;28;19921;-67
2023/02/27 09:34:17;;;;;;;;;;;5.50;99.90;;;;;;5002697;28;19913;-63
2023/02/27 09:36:43;;;;;;;;;;;5.80;99.90;;;;;;5013039;28;20505;-65
2023/02/27 09:39:09;;;;;;;;;;;5.80;99.90;;;;;;5009139;28;19937;-67
2023/02/27 09:41:58;;;;;;;;;;;5.80;99.90;;;;;;5011112;28;19910;-67
2023/02/27 09:44:36;;;;;;;;;;;5.70;99.90;;;;;;4997862;28;19937;-68
2023/02/27 09:47:07;;;;;;;;;;;5.60;99.90;;;;;;5012712;28;19922;-67
2023/02/27 09:49:42;;;;;;;;;;;5.60;99.90;;;;;;5008257;28;20008;-68
2023/02/27 09:52:12;;;;;;;;;;;5.70;99.90;;;;;;5028131;28;19919;-64
2023/02/27 09:54:37;;;;;;;;;;;5.70;99.90;;;;;;5010978;28;19925;-66
2023/02/27 09:57:05;;;;;;;;;;;5.70;99.90;;;;;;5011683;28;19918;-67
2023/02/27 09:59:37;;;;;;;;;;;5.80;99.90;;;;;;5005607;28;20334;-68
2023/02/27 10:02:21;;;;;;;;;;;5.80;99.90;;;;;;5002138;28;19995;-68
2023/02/27 10:04:59;;;;;;;;;;;5.80;99.90;;;;;;4998567;28;20009;-66
2023/02/27 10:07:24;;;;;;;;;;;5.80;99.90;;;;;;5005170;28;19918;-68
2023/02/27 10:09:55;;;;;;;;;;;5.80;99.90;;;;;;5014828;28;19918;-66
2023/02/27 10:12:23;;;;;;;;;;;5.90;99.90;;;;;;5012949;28;19913;-68
2023/02/27 10:14:55;;;;;;;;;;;5.90;99.90;;;;;;5009098;28;19928;-68
2023/02/27 10:17:33;;;;;;;;;;;5.90;99.90;;;;;;5011138;28;19976;-68
2023/02/27 10:20:00;;;;;;;;;;;5.80;99.90;;;;;;5010180;28;19925;-68
2023/02/27 10:22:34;;;;;;;;;;;5.80;99.90;;;;;;5011048;28;20284;-66
2023/02/27 10:25:09;;;;;;;;;;;5.90;99.90;;;;;;5012368;28;19918;-69
2023/02/27 10:27:35;;;;;;;;;;;5.90;99.90;;;;;;5013811;28;20462;-67
2023/02/27 10:30:20;;;;;;;;;;;5.90;99.90;;;;;;5012231;28;19913;-68
2023/02/27 10:32:47;;;;;;;;;;;6.00;99.90;;;;;;5010077;28;20388;-69
2023/02/27 10:35:22;;;;;;;;;;;5.90;99.90;;;;;;5013879;28;19916;-69
2023/02/27 10:37:51;;;;;;;;;;;6.00;99.90;;;;;;5013206;28;19925;-66
2023/02/27 10:40:19;;;;;;;;;;;6.00;99.90;;;;;;5013076;28;19956;-65
2023/02/27 10:42:45;;;;;;;;;;;6.10;99.90;;;;;;5011939;28;20278;-63
2023/02/27 10:45:14;;;;;;;;;;;6.20;99.90;;;;;;5012747;28;19917;-65
2023/02/27 10:47:40;;;;;;;;;;;6.10;99.90;;;;;;5011114;28;19913;-66
2023/02/27 10:50:24;;;;;;;;;;;6.10;99.90;;;;;;5009553;28;19917;-67
2023/02/27 10:52:51;;;;;;;;;;;6.10;99.90;;;;;;5010053;28;19990;-64
2023/02/27 10:55:19;;;;;;;;;;;6.10;99.90;;;;;;5011632;28;19917;-67
2023/02/27 10:57:45;;;;;;;;;;;6.10;99.90;;;;;;5011820;28;19914;-67
2023/02/27 11:00:30;;;;;;;;;;;6.20;99.90;;;;;;5010244;28;19963;-67
2023/02/27 11:02:56;;;;;;;;;;;6.20;99.90;;;;;;5010003;28;19913;-67
2023/02/27 11:05:32;;;;;;;;;;;6.10;99.90;;;;;;5013252;28;19955;-69
2023/02/27 11:08:19;;;;;;;;;;;6.10;99.90;;;;;;5012676;28;20547;-68
2023/02/27 11:11:04;;;;;;;;;;;6.10;99.90;;;;;;5008334;28;19920;-69
2023/02/27 11:13:31;;;;;;;;;;;6.10;99.90;;;;;;5011057;28;19914;-69
2023/02/27 11:16:05;;;;;;;;;;;6.00;99.90;;;;;;5012764;28;20299;-68
2023/02/27 11:18:32;;;;;;;;;;;6.00;99.90;;;;;;5012135;28;19937;-69
2023/02/27 11:21:16;;;;;;;;;;;6.00;99.90;;;;;;5008223;28;19936;-68
2023/02/27 11:23:57;;;;;;;;;;;6.10;99.90;;;;;;5005852;28;20423;-69
2023/02/27 11:26:24;;;;;;;;;;;6.10;99.90;;;;;;5013128;28;19949;-69
2023/02/27 11:29:10;;;;;;;;;;;6.20;99.90;;;;;;5012191;28;19917;-68
2023/02/27 11:31:36;;;;;;;;;;;6.30;99.90;;;;;;5008881;28;19909;-67
2023/02/27 11:34:03;;;;;;;;;;;6.30;99.90;;;;;;5012339;28;20287;-69
2023/02/27 11:37:01;;;;;;;;;;;6.30;99.90;;;;;;5010896;28;19914;-69
2023/02/27 11:39:35;;;;;;;;;;;6.30;99.90;;;;;;4996039;28;19921;-69
2023/02/27 11:42:12;;;;;;;;;;;6.30;99.90;;;;;;5009971;28;19913;-69
2023/02/27 11:44:39;;;;;;;;;;;6.30;99.90;;;;;;5013645;28;20004;-68
2023/02/27 11:47:11;;;;;;;;;;;6.30;99.90;;;;;;5007167;28;19914;-69
2023/02/27 11:49:48;;;;;;;;;;;6.30;99.90;;;;;;5007978;28;19914;-67
2023/02/27 11:52:20;;;;;;;;;;;6.40;99.90;;;;;;5007380;28;19924;-68
2023/02/27 11:54:53;;;;;;;;;;;6.40;99.90;;;;;;5010755;28;19917;-69
2023/02/27 11:57:22;;;;;;;;;;;6.50;99.90;;;;;;5009054;28;19920;-69
2023/02/27 11:59:54;;;;;;;;;;;6.50;99.90;;;;;;5007928;28;20020;-68
2023/02/27 12:02:20;;;;;;;;;;;6.60;99.90;;;;;;5003916;28;20437;-68
2023/02/27 12:04:49;;;;;;;;;;;6.70;99.90;;;;;;5007402;28;19910;-68
2023/02/27 12:07:17;;;;;;;;;;;6.70;99.90;;;;;;5010595;28;19909;-68
2023/02/27 12:09:48;;;;;;;;;;;6.60;99.90;;;;;;5008683;28;20367;-67
2023/02/27 12:12:20;;;;;;;;;;;6.60;99.90;;;;;;5011908;28;20004;-68
2023/02/27 12:14:49;;;;;;;;;;;6.70;99.90;;;;;;5012060;28;19909;-69
2023/02/27 12:17:19;;;;;;;;;;;6.70;99.90;;;;;;5011832;28;20031;-69
2023/02/27 12:20:00;;;;;;;;;;;6.70;99.90;;;;;;5012359;28;19914;-69
2023/02/27 12:22:28;;;;;;;;;;;6.70;99.90;;;;;;5011128;28;19921;-69
2023/02/27 12:24:59;;;;;;;;;;;6.60;99.90;;;;;;5013013;28;20286;-68
2023/02/27 12:27:30;;;;;;;;;;;6.60;99.90;;;;;;5011940;28;19910;-68
2023/02/27 12:30:04;;;;;;;;;;;6.60;99.90;;;;;;5005641;28;19956;-67
2023/02/27 12:32:37;;;;;;;;;;;6.50;99.90;;;;;;5011202;28;19989;-69
2023/02/27 12:35:13;;;;;;;;;;;6.60;99.90;;;;;;5009959;28;19957;-69
2023/02/27 12:37:38;;;;;;;;;;;6.70;99.90;;;;;;5010768;28;20375;-69
2023/02/27 12:40:11;;;;;;;;;;;6.70;99.90;;;;;;5010621;28;19924;-68
2023/02/27 12:42:36;;;;;;;;;;;6.80;99.90;;;;;;5004839;28;19920;-69
2023/02/27 12:45:02;;;;;;;;;;;6.70;99.90;;;;;;5009880;28;19917;-68
2023/02/27 12:47:36;;;;;;;;;;;6.60;99.90;;;;;;5006874;28;20287;-68
2023/02/27 12:50:08;;;;;;;;;;;6.60;99.90;;;;;;5003670;28;20430;-68
2023/02/27 12:52:46;;;;;;;;;;;6.60;99.90;;;;;;4999899;28;19937;-68
2023/02/27 12:55:11;;;;;;;;;;;6.50;99.90;;;;;;5013080;28;19917;-68
2023/02/27 12:57:56;;;;;;;;;;;6.40;99.90;;;;;;5001446;28;20337;-68
2023/02/27 13:00:24;;;;;;;;;;;6.40;99.90;;;;;;5005024;28;19917;-69
2023/02/27 13:02:59;;;;;;;;;;;6.40;99.90;;;;;;5000019;28;20379;-68
2023/02/27 13:05:25;;;;;;;;;;;6.50;99.90;;;;;;5006564;28;20004;-68
2023/02/27 13:08:12;;;;;;;;;;;6.50;99.90;;;;;;5011282;28;19968;-68
2023/02/27 13:10:41;;;;;;;;;;;6.40;99.90;;;;;;5007884;28;20380;-68
2023/02/27 13:13:15;;;;;;;;;;;6.40;99.90;;;;;;5013430;28;19920;-68
2023/02/27 13:15:54;;;;;;;;;;;6.30;99.90;;;;;;5006811;28;20243;-68
2023/02/27 13:18:28;;;;;;;;;;;6.40;99.90;;;;;;5011290;28;19924;-68
2023/02/27 13:20:54;;;;;;;;;;;6.50;99.90;;;;;;5009122;28;19939;-67
2023/02/27 13:23:49;;;;;;;;;;;6.50;99.90;;;;;;5013204;28;20375;-68
2023/02/27 13:26:21;;;;;;;;;;;6.50;99.90;;;;;;4959387;28;19915;-68
2023/02/27 13:28:48;;;;;;;;;;;6.50;99.90;;;;;;5003641;28;20012;-69
2023/02/27 13:31:13;;;;;;;;;;;6.50;99.90;;;;;;5009624;28;20388;-67
2023/02/27 13:33:57;;;;;;;;;;;6.50;99.90;;;;;;5006788;28;19924;-67
2023/02/27 13:36:38;;;;;;;;;;;6.50;99.90;;;;;;5011355;28;19948;-68
2023/02/27 13:39:23;;;;;;;;;;;6.60;99.90;;;;;;5011164;28;19956;-66
2023/02/27 13:41:49;;;;;;;;;;;6.60;99.90;;;;;;5013187;28;19960;-68
2023/02/27 13:44:17;;;;;;;;;;;6.60;99.90;;;;;;5004755;28;19961;-67
2023/02/27 13:46:43;;;;;;;;;;;6.60;99.90;;;;;;5012210;28;20629;-68
2023/02/27 13:49:11;;;;;;;;;;;6.60;99.90;;;;;;5020743;28;19914;-68
2023/02/27 13:51:37;;;;;;;;;;;6.60;99.90;;;;;;5008175;28;19952;-68
2023/02/27 13:54:12;;;;;;;;;;;6.60;99.90;;;;;;5008276;28;19928;-68
2023/02/27 13:56:40;;;;;;;;;;;6.60;99.90;;;;;;5010264;28;19913;-68
2023/02/27 13:59:10;;;;;;;;;;;6.60;99.90;;;;;;5007274;28;20391;-68
2023/02/27 14:01:36;;;;;;;;;;;6.60;99.90;;;;;;5008181;28;19944;-68
2023/02/27 14:04:04;;;;;;;;;;;6.60;99.90;;;;;;5006779;28;19913;-66
2023/02/27 14:06:30;;;;;;;;;;;6.50;99.90;;;;;;5013080;28;19922;-68
2023/02/27 14:08:56;;;;;;;;;;;6.50;99.90;;;;;;5019510;28;19920;-68
2023/02/27 14:11:25;;;;;;;;;;;6.60;99.90;;;;;;5013161;28;19913;-68
2023/02/27 14:13:53;;;;;;;;;;;6.70;99.90;;;;;;5013859;28;19919;-67
2023/02/27 14:16:40;;;;;;;;;;;6.70;99.90;;;;;;5012142;28;19910;-68
2023/02/27 14:19:15;;;;;;;;;;;6.70;99.90;;;;;;5010734;28;20371;-67
2023/02/27 14:21:55;;;;;;;;;;;6.70;99.90;;;;;;5012783;28;19918;-68
2023/02/27 14:24:24;;;;;;;;;;;6.60;99.90;;;;;;5013074;28;20375;-66
2023/02/27 14:26:51;;;;;;;;;;;6.60;99.90;;;;;;5011295;28;19913;-68
2023/02/27 14:29:22;;;;;;;;;;;6.50;99.90;;;;;;5007087;28;20063;-67
2023/02/27 14:31:48;;;;;;;;;;;6.60;99.90;;;;;;5012637;28;19913;-66
2023/02/27 14:34:15;;;;;;;;;;;6.50;99.90;;;;;;5011629;28;20287;-67
2023/02/27 14:36:45;;;;;;;;;;;6.40;99.90;;;;;;5012404;28;20447;-68
2023/02/27 14:39:40;;;;;;;;;;;6.30;99.90;;;;;;5006215;28;19936;-67
2023/02/27 14:42:24;;;;;;;;;;;6.20;99.90;;;;;;4988685;28;19913;-65
2023/02/27 14:44:50;;;;;;;;;;;6.20;99.90;;;;;;5012352;28;20207;-67
2023/02/27 14:47:16;;;;;;;;;;;6.30;99.90;;;;;;5005173;28;19920;-68